sensor_id;sensor_type;location;lat;lon;timestamp;temperature;humidity
43697;DHT22;29301;47.620;19.560;2023-07-29T00:01:51;22.00;96.00
43697;DHT22;29301;47.620;19.560;2023-07-29T00:04:19;22.00;96.20
43697;DHT22;29301;47.620;19.560;2023-07-29T00:06:45;22.00;96.20
43697;DHT22;29301;47.620;19.560;2023-07-29T00:09:11;22.00;96.30
43697;DHT22;29301;47.620;19.560;2023-07-29T00:11:38;22.10;96.50
43697;DHT22;29301;47.620;19.560;2023-07-29T00:14:03;22.00;96.00
43697;DHT22;29301;47.620;19.560;2023-07-29T00:16:29;22.10;95.70
43697;DHT22;29301;47.620;19.560;2023-07-29T00:18:55;22.10;95.60
43697;DHT22;29301;47.620;19.560;2023-07-29T00:21:20;22.00;95.60
43697;DHT22;29301;47.620;19.560;2023-07-29T00:23:46;22.00;95.60
43697;DHT22;29301;47.620;19.560;2023-07-29T00:26:12;22.00;95.60
43697;DHT22;29301;47.620;19.560;2023-07-29T00:28:37;22.00;95.50
43697;DHT22;29301;47.620;19.560;2023-07-29T00:31:03;22.00;95.40
43697;DHT22;29301;47.620;19.560;2023-07-29T00:33:28;22.00;95.30
43697;DHT22;29301;47.620;19.560;2023-07-29T00:35:54;21.90;95.00
43697;DHT22;29301;47.620;19.560;2023-07-29T00:38:20;21.90;94.40
43697;DHT22;29301;47.620;19.560;2023-07-29T00:40:45;21.90;94.20
43697;DHT22;29301;47.620;19.560;2023-07-29T00:43:11;21.90;93.80
43697;DHT22;29301;47.620;19.560;2023-07-29T00:45:37;21.80;93.80
43697;DHT22;29301;47.620;19.560;2023-07-29T00:48:04;21.70;94.50
43697;DHT22;29301;47.620;19.560;2023-07-29T00:50:31;21.50;94.90
43697;DHT22;29301;47.620;19.560;2023-07-29T00:52:57;21.60;95.60
43697;DHT22;29301;47.620;19.560;2023-07-29T00:55:23;21.60;96.50
43697;DHT22;29301;47.620;19.560;2023-07-29T00:57:50;21.60;97.10
43697;DHT22;29301;47.620;19.560;2023-07-29T01:00:18;21.60;97.10
43697;DHT22;29301;47.620;19.560;2023-07-29T01:02:44;21.70;96.80
43697;DHT22;29301;47.620;19.560;2023-07-29T01:05:13;21.60;96.50
43697;DHT22;29301;47.620;19.560;2023-07-29T01:07:59;21.60;97.10
43697;DHT22;29301;47.620;19.560;2023-07-29T01:13:37;21.60;96.80
43697;DHT22;29301;47.620;19.560;2023-07-29T01:16:35;21.60;96.20
43697;DHT22;29301;47.620;19.560;2023-07-29T01:19:06;21.60;95.80
43697;DHT22;29301;47.620;19.560;2023-07-29T01:21:35;21.60;95.70
43697;DHT22;29301;47.620;19.560;2023-07-29T01:24:01;21.60;95.40
43697;DHT22;29301;47.620;19.560;2023-07-29T01:26:27;21.60;95.00
43697;DHT22;29301;47.620;19.560;2023-07-29T01:28:57;21.60;94.40
43697;DHT22;29301;47.620;19.560;2023-07-29T01:31:32;21.50;94.10
43697;DHT22;29301;47.620;19.560;2023-07-29T01:34:32;21.50;94.20
43697;DHT22;29301;47.620;19.560;2023-07-29T01:37:02;21.50;94.20
43697;DHT22;29301;47.620;19.560;2023-07-29T01:39:32;21.40;94.10
43697;DHT22;29301;47.620;19.560;2023-07-29T01:41:58;21.40;94.10
43697;DHT22;29301;47.620;19.560;2023-07-29T01:44:25;21.20;93.80
43697;DHT22;29301;47.620;19.560;2023-07-29T01:46:51;21.00;94.70
43697;DHT22;29301;47.620;19.560;2023-07-29T01:49:17;20.80;95.20
43697;DHT22;29301;47.620;19.560;2023-07-29T01:51:43;20.80;95.70
43697;DHT22;29301;47.620;19.560;2023-07-29T01:54:09;20.80;95.50
43697;DHT22;29301;47.620;19.560;2023-07-29T01:56:34;20.80;95.50
43697;DHT22;29301;47.620;19.560;2023-07-29T01:59:00;20.90;94.90
43697;DHT22;29301;47.620;19.560;2023-07-29T02:01:26;20.90;94.60
43697;DHT22;29301;47.620;19.560;2023-07-29T02:03:51;20.90;94.30
43697;DHT22;29301;47.620;19.560;2023-07-29T02:06:21;20.90;93.70
43697;DHT22;29301;47.620;19.560;2023-07-29T02:08:46;20.90;93.60
43697;DHT22;29301;47.620;19.560;2023-07-29T02:11:12;20.90;93.50
43697;DHT22;29301;47.620;19.560;2023-07-29T02:13:38;20.90;93.60
43697;DHT22;29301;47.620;19.560;2023-07-29T02:16:04;20.90;93.70
43697;DHT22;29301;47.620;19.560;2023-07-29T02:18:29;20.90;93.70
43697;DHT22;29301;47.620;19.560;2023-07-29T02:20:55;20.90;93.50
43697;DHT22;29301;47.620;19.560;2023-07-29T02:23:20;20.90;93.40
43697;DHT22;29301;47.620;19.560;2023-07-29T02:25:46;20.90;93.30
43697;DHT22;29301;47.620;19.560;2023-07-29T02:28:12;20.90;93.20
43697;DHT22;29301;47.620;19.560;2023-07-29T02:30:41;20.90;93.20
43697;DHT22;29301;47.620;19.560;2023-07-29T02:33:09;20.80;93.00
43697;DHT22;29301;47.620;19.560;2023-07-29T02:35:35;20.80;93.00
43697;DHT22;29301;47.620;19.560;2023-07-29T02:38:00;20.70;92.90
43697;DHT22;29301;47.620;19.560;2023-07-29T02:40:26;20.80;93.20
43697;DHT22;29301;47.620;19.560;2023-07-29T02:42:53;20.80;93.20
43697;DHT22;29301;47.620;19.560;2023-07-29T02:45:19;20.70;93.10
43697;DHT22;29301;47.620;19.560;2023-07-29T02:47:44;20.80;93.00
43697;DHT22;29301;47.620;19.560;2023-07-29T02:50:10;20.70;93.10
43697;DHT22;29301;47.620;19.560;2023-07-29T02:52:35;20.70;93.00
43697;DHT22;29301;47.620;19.560;2023-07-29T02:55:01;20.70;93.10
43697;DHT22;29301;47.620;19.560;2023-07-29T02:57:27;20.70;93.40
43697;DHT22;29301;47.620;19.560;2023-07-29T02:59:52;20.70;93.40
43697;DHT22;29301;47.620;19.560;2023-07-29T03:02:18;20.70;93.20
43697;DHT22;29301;47.620;19.560;2023-07-29T03:04:43;20.60;93.10
43697;DHT22;29301;47.620;19.560;2023-07-29T03:07:09;20.60;92.70
43697;DHT22;29301;47.620;19.560;2023-07-29T03:09:36;20.50;92.60
43697;DHT22;29301;47.620;19.560;2023-07-29T03:12:01;20.40;92.50
43697;DHT22;29301;47.620;19.560;2023-07-29T03:14:27;20.40;92.90
43697;DHT22;29301;47.620;19.560;2023-07-29T03:16:53;20.40;93.10
43697;DHT22;29301;47.620;19.560;2023-07-29T03:19:19;20.40;93.20
43697;DHT22;29301;47.620;19.560;2023-07-29T03:21:44;20.30;93.40
43697;DHT22;29301;47.620;19.560;2023-07-29T03:24:11;20.30;94.00
43697;DHT22;29301;47.620;19.560;2023-07-29T03:26:36;20.20;94.50
43697;DHT22;29301;47.620;19.560;2023-07-29T03:29:02;20.20;95.10
43697;DHT22;29301;47.620;19.560;2023-07-29T03:31:28;20.20;95.50
43697;DHT22;29301;47.620;19.560;2023-07-29T03:33:53;20.10;95.70
43697;DHT22;29301;47.620;19.560;2023-07-29T03:36:21;20.10;96.00
43697;DHT22;29301;47.620;19.560;2023-07-29T03:38:47;20.10;96.50
43697;DHT22;29301;47.620;19.560;2023-07-29T03:41:12;20.10;97.00
43697;DHT22;29301;47.620;19.560;2023-07-29T03:43:38;20.10;97.40
43697;DHT22;29301;47.620;19.560;2023-07-29T03:46:04;20.00;97.50
43697;DHT22;29301;47.620;19.560;2023-07-29T03:48:30;20.00;97.80
43697;DHT22;29301;47.620;19.560;2023-07-29T03:50:56;20.00;97.90
43697;DHT22;29301;47.620;19.560;2023-07-29T03:53:22;20.00;97.90
43697;DHT22;29301;47.620;19.560;2023-07-29T03:55:48;20.00;98.00
43697;DHT22;29301;47.620;19.560;2023-07-29T03:58:15;20.00;98.00
43697;DHT22;29301;47.620;19.560;2023-07-29T04:00:41;20.00;98.00
43697;DHT22;29301;47.620;19.560;2023-07-29T04:03:06;20.00;98.10
43697;DHT22;29301;47.620;19.560;2023-07-29T04:05:32;19.90;98.30
43697;DHT22;29301;47.620;19.560;2023-07-29T04:07:58;19.90;98.50
43697;DHT22;29301;47.620;19.560;2023-07-29T04:10:23;19.90;98.90
43697;DHT22;29301;47.620;19.560;2023-07-29T04:12:49;19.90;99.00
43697;DHT22;29301;47.620;19.560;2023-07-29T04:15:15;19.90;99.10
43697;DHT22;29301;47.620;19.560;2023-07-29T04:17:40;20.00;99.10
43697;DHT22;29301;47.620;19.560;2023-07-29T04:20:06;20.00;99.00
43697;DHT22;29301;47.620;19.560;2023-07-29T04:22:33;20.00;98.60
43697;DHT22;29301;47.620;19.560;2023-07-29T04:24:59;20.10;98.10
43697;DHT22;29301;47.620;19.560;2023-07-29T04:27:24;20.10;97.80
43697;DHT22;29301;47.620;19.560;2023-07-29T04:29:50;20.20;97.50
43697;DHT22;29301;47.620;19.560;2023-07-29T04:32:15;20.20;97.40
43697;DHT22;29301;47.620;19.560;2023-07-29T04:34:41;20.20;97.40
43697;DHT22;29301;47.620;19.560;2023-07-29T04:37:07;20.10;97.60
43697;DHT22;29301;47.620;19.560;2023-07-29T04:39:33;20.00;98.10
43697;DHT22;29301;47.620;19.560;2023-07-29T04:41:58;20.00;98.50
43697;DHT22;29301;47.620;19.560;2023-07-29T04:44:24;20.10;98.40
43697;DHT22;29301;47.620;19.560;2023-07-29T04:46:50;20.00;98.80
43697;DHT22;29301;47.620;19.560;2023-07-29T04:49:15;20.00;99.30
43697;DHT22;29301;47.620;19.560;2023-07-29T04:51:41;20.00;99.60
43697;DHT22;29301;47.620;19.560;2023-07-29T04:54:07;20.00;99.30
43697;DHT22;29301;47.620;19.560;2023-07-29T04:56:32;19.80;99.90
43697;DHT22;29301;47.620;19.560;2023-07-29T04:58:58;19.80;99.90
43697;DHT22;29301;47.620;19.560;2023-07-29T05:01:23;19.80;99.90
43697;DHT22;29301;47.620;19.560;2023-07-29T05:03:50;20.00;99.90
43697;DHT22;29301;47.620;19.560;2023-07-29T05:06:16;20.00;99.90
43697;DHT22;29301;47.620;19.560;2023-07-29T05:08:41;20.10;99.90
43697;DHT22;29301;47.620;19.560;2023-07-29T05:11:07;20.10;99.90
43697;DHT22;29301;47.620;19.560;2023-07-29T05:13:33;20.20;99.90
43697;DHT22;29301;47.620;19.560;2023-07-29T05:15:58;20.20;99.90
43697;DHT22;29301;47.620;19.560;2023-07-29T05:18:24;20.30;99.90
43697;DHT22;29301;47.620;19.560;2023-07-29T05:20:49;20.30;99.90
43697;DHT22;29301;47.620;19.560;2023-07-29T05:23:15;20.40;99.90
43697;DHT22;29301;47.620;19.560;2023-07-29T05:25:41;20.50;99.90
43697;DHT22;29301;47.620;19.560;2023-07-29T05:28:06;20.50;99.90
43697;DHT22;29301;47.620;19.560;2023-07-29T05:30:32;20.40;99.90
43697;DHT22;29301;47.620;19.560;2023-07-29T05:33:00;20.40;99.90
43697;DHT22;29301;47.620;19.560;2023-07-29T05:35:25;20.50;99.90
43697;DHT22;29301;47.620;19.560;2023-07-29T05:37:51;20.60;99.90
43697;DHT22;29301;47.620;19.560;2023-07-29T05:40:16;20.60;99.90
43697;DHT22;29301;47.620;19.560;2023-07-29T05:42:42;20.70;99.90
43697;DHT22;29301;47.620;19.560;2023-07-29T05:45:09;20.70;99.90
43697;DHT22;29301;47.620;19.560;2023-07-29T05:47:36;20.90;99.90
43697;DHT22;29301;47.620;19.560;2023-07-29T05:50:02;20.90;99.00
43697;DHT22;29301;47.620;19.560;2023-07-29T05:52:30;21.10;98.50
43697;DHT22;29301;47.620;19.560;2023-07-29T05:54:56;21.10;97.50
43697;DHT22;29301;47.620;19.560;2023-07-29T05:57:21;21.20;97.10
43697;DHT22;29301;47.620;19.560;2023-07-29T05:59:47;21.30;96.80
43697;DHT22;29301;47.620;19.560;2023-07-29T06:02:12;21.40;96.40
43697;DHT22;29301;47.620;19.560;2023-07-29T06:04:38;21.60;95.40
43697;DHT22;29301;47.620;19.560;2023-07-29T06:07:04;21.70;94.70
43697;DHT22;29301;47.620;19.560;2023-07-29T06:09:30;21.80;94.30
43697;DHT22;29301;47.620;19.560;2023-07-29T06:11:56;21.90;94.30
43697;DHT22;29301;47.620;19.560;2023-07-29T06:14:21;22.00;93.30
43697;DHT22;29301;47.620;19.560;2023-07-29T06:16:47;22.00;93.70
43697;DHT22;29301;47.620;19.560;2023-07-29T06:19:13;22.10;94.20
43697;DHT22;29301;47.620;19.560;2023-07-29T06:21:38;22.20;94.50
43697;DHT22;29301;47.620;19.560;2023-07-29T06:24:04;22.30;93.80
43697;DHT22;29301;47.620;19.560;2023-07-29T06:26:30;22.50;93.40
43697;DHT22;29301;47.620;19.560;2023-07-29T06:28:55;22.70;93.50
43697;DHT22;29301;47.620;19.560;2023-07-29T06:31:21;22.80;93.40
43697;DHT22;29301;47.620;19.560;2023-07-29T06:33:47;23.00;93.50
43697;DHT22;29301;47.620;19.560;2023-07-29T06:36:13;23.20;92.90
43697;DHT22;29301;47.620;19.560;2023-07-29T06:38:39;23.50;91.70
43697;DHT22;29301;47.620;19.560;2023-07-29T06:41:06;23.60;91.40
43697;DHT22;29301;47.620;19.560;2023-07-29T06:43:32;23.60;91.70
43697;DHT22;29301;47.620;19.560;2023-07-29T06:45:57;23.60;91.30
43697;DHT22;29301;47.620;19.560;2023-07-29T06:48:23;23.80;90.40
43697;DHT22;29301;47.620;19.560;2023-07-29T06:50:49;23.90;89.60
43697;DHT22;29301;47.620;19.560;2023-07-29T06:53:16;24.00;88.30
43697;DHT22;29301;47.620;19.560;2023-07-29T06:55:42;24.20;88.00
43697;DHT22;29301;47.620;19.560;2023-07-29T06:58:08;24.40;86.50
43697;DHT22;29301;47.620;19.560;2023-07-29T07:00:34;24.60;83.30
43697;DHT22;29301;47.620;19.560;2023-07-29T07:02:59;24.80;84.20
43697;DHT22;29301;47.620;19.560;2023-07-29T07:05:25;25.10;81.30
43697;DHT22;29301;47.620;19.560;2023-07-29T07:07:51;25.40;79.50
43697;DHT22;29301;47.620;19.560;2023-07-29T07:10:16;25.70;79.00
43697;DHT22;29301;47.620;19.560;2023-07-29T07:12:44;25.90;75.60
43697;DHT22;29301;47.620;19.560;2023-07-29T07:15:10;26.10;74.50
43697;DHT22;29301;47.620;19.560;2023-07-29T07:17:36;26.10;71.90
43697;DHT22;29301;47.620;19.560;2023-07-29T07:20:02;26.30;70.90
43697;DHT22;29301;47.620;19.560;2023-07-29T07:22:27;26.50;70.30
43697;DHT22;29301;47.620;19.560;2023-07-29T07:24:53;26.70;67.50
43697;DHT22;29301;47.620;19.560;2023-07-29T07:27:19;26.80;67.90
43697;DHT22;29301;47.620;19.560;2023-07-29T07:29:44;27.10;67.50
43697;DHT22;29301;47.620;19.560;2023-07-29T07:32:10;27.20;64.30
43697;DHT22;29301;47.620;19.560;2023-07-29T07:34:35;27.30;64.90
43697;DHT22;29301;47.620;19.560;2023-07-29T07:37:01;27.50;64.50
43697;DHT22;29301;47.620;19.560;2023-07-29T07:39:29;27.60;62.40
43697;DHT22;29301;47.620;19.560;2023-07-29T07:41:54;27.80;61.20
43697;DHT22;29301;47.620;19.560;2023-07-29T07:44:20;27.80;59.00
43697;DHT22;29301;47.620;19.560;2023-07-29T07:46:46;28.00;60.90
43697;DHT22;29301;47.620;19.560;2023-07-29T07:49:12;28.30;58.70
43697;DHT22;29301;47.620;19.560;2023-07-29T07:51:38;28.60;55.10
43697;DHT22;29301;47.620;19.560;2023-07-29T07:54:04;28.70;51.80
43697;DHT22;29301;47.620;19.560;2023-07-29T07:56:30;28.80;48.00
43697;DHT22;29301;47.620;19.560;2023-07-29T07:58:56;28.90;48.50
43697;DHT22;29301;47.620;19.560;2023-07-29T08:01:21;28.90;46.80
43697;DHT22;29301;47.620;19.560;2023-07-29T08:03:47;28.90;47.00
43697;DHT22;29301;47.620;19.560;2023-07-29T08:06:13;29.10;46.90
43697;DHT22;29301;47.620;19.560;2023-07-29T08:08:39;29.20;46.50
43697;DHT22;29301;47.620;19.560;2023-07-29T08:11:04;29.30;45.40
43697;DHT22;29301;47.620;19.560;2023-07-29T08:13:30;29.30;45.20
43697;DHT22;29301;47.620;19.560;2023-07-29T08:15:55;29.40;42.80
43697;DHT22;29301;47.620;19.560;2023-07-29T08:18:21;29.40;42.90
43697;DHT22;29301;47.620;19.560;2023-07-29T08:20:54;29.40;41.70
43697;DHT22;29301;47.620;19.560;2023-07-29T08:23:21;29.40;41.40
43697;DHT22;29301;47.620;19.560;2023-07-29T08:25:52;29.40;42.00
43697;DHT22;29301;47.620;19.560;2023-07-29T08:28:18;29.30;41.90
43697;DHT22;29301;47.620;19.560;2023-07-29T08:30:44;29.10;42.60
43697;DHT22;29301;47.620;19.560;2023-07-29T08:33:10;29.00;42.60
43697;DHT22;29301;47.620;19.560;2023-07-29T08:35:35;29.10;43.60
43697;DHT22;29301;47.620;19.560;2023-07-29T08:38:02;29.30;43.50
43697;DHT22;29301;47.620;19.560;2023-07-29T08:40:29;29.30;43.00
43697;DHT22;29301;47.620;19.560;2023-07-29T08:42:57;29.30;44.10
43697;DHT22;29301;47.620;19.560;2023-07-29T08:45:24;29.70;43.90
43697;DHT22;29301;47.620;19.560;2023-07-29T08:47:54;30.00;43.00
43697;DHT22;29301;47.620;19.560;2023-07-29T08:50:23;30.20;41.90
43697;DHT22;29301;47.620;19.560;2023-07-29T08:52:51;30.20;42.60
43697;DHT22;29301;47.620;19.560;2023-07-29T08:55:19;30.30;42.80
43697;DHT22;29301;47.620;19.560;2023-07-29T08:57:45;30.30;41.40
43697;DHT22;29301;47.620;19.560;2023-07-29T09:00:11;30.20;41.50
43697;DHT22;29301;47.620;19.560;2023-07-29T09:02:38;30.30;40.40
43697;DHT22;29301;47.620;19.560;2023-07-29T09:05:04;30.50;40.00
43697;DHT22;29301;47.620;19.560;2023-07-29T09:07:31;30.20;38.80
43697;DHT22;29301;47.620;19.560;2023-07-29T09:09:58;29.90;39.30
43697;DHT22;29301;47.620;19.560;2023-07-29T09:12:24;29.70;38.70
43697;DHT22;29301;47.620;19.560;2023-07-29T09:14:53;29.90;40.00
43697;DHT22;29301;47.620;19.560;2023-07-29T09:17:20;30.20;40.00
43697;DHT22;29301;47.620;19.560;2023-07-29T09:19:51;30.50;39.20
43697;DHT22;29301;47.620;19.560;2023-07-29T09:22:20;30.70;36.90
43697;DHT22;29301;47.620;19.560;2023-07-29T09:24:49;30.80;36.70
43697;DHT22;29301;47.620;19.560;2023-07-29T09:27:25;30.90;36.30
43697;DHT22;29301;47.620;19.560;2023-07-29T09:29:52;30.80;35.40
43697;DHT22;29301;47.620;19.560;2023-07-29T09:32:22;31.00;36.10
43697;DHT22;29301;47.620;19.560;2023-07-29T09:34:48;31.20;35.60
43697;DHT22;29301;47.620;19.560;2023-07-29T09:37:20;31.30;33.80
43697;DHT22;29301;47.620;19.560;2023-07-29T09:39:47;31.50;34.40
43697;DHT22;29301;47.620;19.560;2023-07-29T09:42:21;31.50;34.30
43697;DHT22;29301;47.620;19.560;2023-07-29T09:44:49;31.50;34.10
43697;DHT22;29301;47.620;19.560;2023-07-29T09:47:22;31.50;33.90
43697;DHT22;29301;47.620;19.560;2023-07-29T09:49:49;31.70;34.30
43697;DHT22;29301;47.620;19.560;2023-07-29T09:52:20;31.60;33.90
43697;DHT22;29301;47.620;19.560;2023-07-29T09:54:47;31.60;33.70
43697;DHT22;29301;47.620;19.560;2023-07-29T09:57:18;31.80;33.20
43697;DHT22;29301;47.620;19.560;2023-07-29T09:59:56;31.90;33.50
43697;DHT22;29301;47.620;19.560;2023-07-29T10:02:22;31.90;32.50
43697;DHT22;29301;47.620;19.560;2023-07-29T10:04:51;32.00;30.80
43697;DHT22;29301;47.620;19.560;2023-07-29T10:07:17;32.20;31.20
43697;DHT22;29301;47.620;19.560;2023-07-29T10:09:45;32.10;30.60
43697;DHT22;29301;47.620;19.560;2023-07-29T10:12:11;32.10;30.20
43697;DHT22;29301;47.620;19.560;2023-07-29T10:14:38;32.30;29.90
43697;DHT22;29301;47.620;19.560;2023-07-29T10:17:05;32.50;30.10
43697;DHT22;29301;47.620;19.560;2023-07-29T10:19:31;32.50;30.00
43697;DHT22;29301;47.620;19.560;2023-07-29T10:21:59;32.50;29.20
43697;DHT22;29301;47.620;19.560;2023-07-29T10:24:30;32.60;29.60
43697;DHT22;29301;47.620;19.560;2023-07-29T10:27:00;32.70;29.80
43697;DHT22;29301;47.620;19.560;2023-07-29T10:29:31;32.70;29.50
43697;DHT22;29301;47.620;19.560;2023-07-29T10:32:02;32.70;29.00
43697;DHT22;29301;47.620;19.560;2023-07-29T10:34:33;32.60;29.60
43697;DHT22;29301;47.620;19.560;2023-07-29T10:37:02;32.60;29.50
43697;DHT22;29301;47.620;19.560;2023-07-29T10:39:39;32.70;29.00
43697;DHT22;29301;47.620;19.560;2023-07-29T10:42:06;32.80;29.50
43697;DHT22;29301;47.620;19.560;2023-07-29T10:47:27;33.00;29.20
43697;DHT22;29301;47.620;19.560;2023-07-29T10:49:56;32.90;27.00
43697;DHT22;29301;47.620;19.560;2023-07-29T10:52:40;32.70;27.10
43697;DHT22;29301;47.620;19.560;2023-07-29T10:58:04;32.80;27.10
43697;DHT22;29301;47.620;19.560;2023-07-29T11:00:31;32.50;26.50
43697;DHT22;29301;47.620;19.560;2023-07-29T11:03:03;32.50;27.20
43697;DHT22;29301;47.620;19.560;2023-07-29T11:05:46;32.50;27.20
43697;DHT22;29301;47.620;19.560;2023-07-29T11:08:29;32.50;27.10
43697;DHT22;29301;47.620;19.560;2023-07-29T11:11:02;32.50;26.40
43697;DHT22;29301;47.620;19.560;2023-07-29T11:13:30;32.40;26.40
43697;DHT22;29301;47.620;19.560;2023-07-29T11:15:57;32.50;26.40
43697;DHT22;29301;47.620;19.560;2023-07-29T11:18:35;32.60;27.40
43697;DHT22;29301;47.620;19.560;2023-07-29T11:21:03;32.80;27.50
43697;DHT22;29301;47.620;19.560;2023-07-29T11:23:34;32.80;26.20
43697;DHT22;29301;47.620;19.560;2023-07-29T11:26:01;32.70;26.90
43697;DHT22;29301;47.620;19.560;2023-07-29T11:28:27;32.60;26.70
43697;DHT22;29301;47.620;19.560;2023-07-29T11:30:54;32.50;26.80
43697;DHT22;29301;47.620;19.560;2023-07-29T11:33:25;32.50;27.90
43697;DHT22;29301;47.620;19.560;2023-07-29T11:35:53;32.70;27.30
43697;DHT22;29301;47.620;19.560;2023-07-29T11:38:21;32.80;26.40
43697;DHT22;29301;47.620;19.560;2023-07-29T11:40:58;32.80;26.60
43697;DHT22;29301;47.620;19.560;2023-07-29T11:43:24;32.80;26.50
43697;DHT22;29301;47.620;19.560;2023-07-29T11:45:50;32.90;26.10
43697;DHT22;29301;47.620;19.560;2023-07-29T11:48:16;32.60;25.80
43697;DHT22;29301;47.620;19.560;2023-07-29T11:50:42;32.30;26.80
43697;DHT22;29301;47.620;19.560;2023-07-29T11:53:08;32.20;26.60
43697;DHT22;29301;47.620;19.560;2023-07-29T11:55:34;32.30;27.40
43697;DHT22;29301;47.620;19.560;2023-07-29T11:58:01;32.50;27.30
43697;DHT22;29301;47.620;19.560;2023-07-29T12:00:28;32.50;27.20
43697;DHT22;29301;47.620;19.560;2023-07-29T12:02:54;32.60;27.10
43697;DHT22;29301;47.620;19.560;2023-07-29T12:05:21;32.60;26.60
43697;DHT22;29301;47.620;19.560;2023-07-29T12:07:47;32.80;27.10
43697;DHT22;29301;47.620;19.560;2023-07-29T12:10:14;32.80;27.20
43697;DHT22;29301;47.620;19.560;2023-07-29T12:12:47;32.60;26.60
43697;DHT22;29301;47.620;19.560;2023-07-29T12:15:12;32.30;27.60
43697;DHT22;29301;47.620;19.560;2023-07-29T12:17:42;32.20;28.00
43697;DHT22;29301;47.620;19.560;2023-07-29T12:20:11;32.10;28.00
43697;DHT22;29301;47.620;19.560;2023-07-29T12:22:36;32.10;28.00
43697;DHT22;29301;47.620;19.560;2023-07-29T12:25:03;32.10;27.00
43697;DHT22;29301;47.620;19.560;2023-07-29T12:27:30;32.30;27.30
43697;DHT22;29301;47.620;19.560;2023-07-29T12:29:57;32.40;27.10
43697;DHT22;29301;47.620;19.560;2023-07-29T12:32:25;32.40;27.00
43697;DHT22;29301;47.620;19.560;2023-07-29T12:34:53;32.30;27.40
43697;DHT22;29301;47.620;19.560;2023-07-29T12:37:19;32.20;27.10
43697;DHT22;29301;47.620;19.560;2023-07-29T12:39:44;32.30;27.10
43697;DHT22;29301;47.620;19.560;2023-07-29T12:42:10;32.50;26.10
43697;DHT22;29301;47.620;19.560;2023-07-29T12:44:37;32.60;25.60
43697;DHT22;29301;47.620;19.560;2023-07-29T12:47:05;32.70;25.80
43697;DHT22;29301;47.620;19.560;2023-07-29T12:49:31;32.50;26.00
43697;DHT22;29301;47.620;19.560;2023-07-29T12:51:57;32.40;27.00
43697;DHT22;29301;47.620;19.560;2023-07-29T12:54:23;32.30;26.80
43697;DHT22;29301;47.620;19.560;2023-07-29T12:56:49;32.30;26.20
43697;DHT22;29301;47.620;19.560;2023-07-29T12:59:15;32.40;25.80
43697;DHT22;29301;47.620;19.560;2023-07-29T13:01:41;32.50;26.40
43697;DHT22;29301;47.620;19.560;2023-07-29T13:04:06;32.50;25.20
43697;DHT22;29301;47.620;19.560;2023-07-29T13:06:32;32.50;24.80
43697;DHT22;29301;47.620;19.560;2023-07-29T13:08:58;32.40;25.10
43697;DHT22;29301;47.620;19.560;2023-07-29T13:11:24;32.40;25.20
43697;DHT22;29301;47.620;19.560;2023-07-29T13:13:50;32.50;24.90
43697;DHT22;29301;47.620;19.560;2023-07-29T13:16:15;32.60;24.90
43697;DHT22;29301;47.620;19.560;2023-07-29T13:18:41;32.40;24.70
43697;DHT22;29301;47.620;19.560;2023-07-29T13:21:08;31.90;25.40
43697;DHT22;29301;47.620;19.560;2023-07-29T13:23:34;31.70;25.70
43697;DHT22;29301;47.620;19.560;2023-07-29T13:26:00;31.90;26.00
43697;DHT22;29301;47.620;19.560;2023-07-29T13:28:25;31.90;26.50
43697;DHT22;29301;47.620;19.560;2023-07-29T13:30:51;32.10;26.50
43697;DHT22;29301;47.620;19.560;2023-07-29T13:33:17;32.10;26.40
43697;DHT22;29301;47.620;19.560;2023-07-29T13:35:42;32.20;26.30
43697;DHT22;29301;47.620;19.560;2023-07-29T13:38:08;32.20;25.90
43697;DHT22;29301;47.620;19.560;2023-07-29T13:40:34;32.00;26.40
43697;DHT22;29301;47.620;19.560;2023-07-29T13:43:00;31.90;26.20
43697;DHT22;29301;47.620;19.560;2023-07-29T13:45:26;31.90;26.50
43697;DHT22;29301;47.620;19.560;2023-07-29T13:47:51;31.80;26.90
43697;DHT22;29301;47.620;19.560;2023-07-29T13:50:17;31.90;26.70
43697;DHT22;29301;47.620;19.560;2023-07-29T13:52:43;31.90;26.70
43697;DHT22;29301;47.620;19.560;2023-07-29T13:55:09;32.00;27.10
43697;DHT22;29301;47.620;19.560;2023-07-29T13:57:37;32.10;26.50
43697;DHT22;29301;47.620;19.560;2023-07-29T14:00:03;32.10;27.10
43697;DHT22;29301;47.620;19.560;2023-07-29T14:02:29;32.00;26.90
43697;DHT22;29301;47.620;19.560;2023-07-29T14:04:56;31.80;27.50
43697;DHT22;29301;47.620;19.560;2023-07-29T14:07:22;31.70;27.50
43697;DHT22;29301;47.620;19.560;2023-07-29T14:09:48;31.80;27.80
43697;DHT22;29301;47.620;19.560;2023-07-29T14:12:13;31.70;27.50
43697;DHT22;29301;47.620;19.560;2023-07-29T14:14:41;31.40;27.00
43697;DHT22;29301;47.620;19.560;2023-07-29T14:17:08;31.10;27.30
43697;DHT22;29301;47.620;19.560;2023-07-29T14:19:35;31.10;27.90
43697;DHT22;29301;47.620;19.560;2023-07-29T14:22:01;31.20;28.00
43697;DHT22;29301;47.620;19.560;2023-07-29T14:24:26;31.30;27.60
43697;DHT22;29301;47.620;19.560;2023-07-29T14:26:52;31.40;27.80
43697;DHT22;29301;47.620;19.560;2023-07-29T14:29:18;31.30;27.20
43697;DHT22;29301;47.620;19.560;2023-07-29T14:31:43;31.30;27.30
43697;DHT22;29301;47.620;19.560;2023-07-29T14:34:09;31.50;27.20
43697;DHT22;29301;47.620;19.560;2023-07-29T14:36:36;31.50;27.40
43697;DHT22;29301;47.620;19.560;2023-07-29T14:39:01;31.60;27.00
43697;DHT22;29301;47.620;19.560;2023-07-29T14:41:27;31.70;26.60
43697;DHT22;29301;47.620;19.560;2023-07-29T14:43:53;31.70;26.40
43697;DHT22;29301;47.620;19.560;2023-07-29T14:46:18;31.70;26.30
43697;DHT22;29301;47.620;19.560;2023-07-29T14:48:44;31.80;26.30
43697;DHT22;29301;47.620;19.560;2023-07-29T14:51:10;31.80;25.90
43697;DHT22;29301;47.620;19.560;2023-07-29T14:53:36;31.50;26.40
43697;DHT22;29301;47.620;19.560;2023-07-29T14:56:02;31.40;26.90
43697;DHT22;29301;47.620;19.560;2023-07-29T14:58:27;31.30;27.40
43697;DHT22;29301;47.620;19.560;2023-07-29T15:00:53;31.40;27.50
43697;DHT22;29301;47.620;19.560;2023-07-29T15:03:19;31.40;27.10
43697;DHT22;29301;47.620;19.560;2023-07-29T15:05:44;31.40;27.40
43697;DHT22;29301;47.620;19.560;2023-07-29T15:08:10;31.50;27.40
43697;DHT22;29301;47.620;19.560;2023-07-29T15:10:36;31.50;26.90
43697;DHT22;29301;47.620;19.560;2023-07-29T15:13:02;31.50;26.40
43697;DHT22;29301;47.620;19.560;2023-07-29T15:15:27;31.60;26.40
43697;DHT22;29301;47.620;19.560;2023-07-29T15:17:53;31.60;26.30
43697;DHT22;29301;47.620;19.560;2023-07-29T15:20:19;31.60;26.70
43697;DHT22;29301;47.620;19.560;2023-07-29T15:22:44;31.60;26.60